sensor_id;sensor_type;location;lat;lon;timestamp;P1;durP1;ratioP1;P2;durP2;ratioP2
3847;SDS011;1939;48.720;9.166;2023-04-03T00:02:08;5.80;;;3.53;;
3847;SDS011;1939;48.720;9.166;2023-04-03T00:04:33;7.40;;;3.17;;
3847;SDS011;1939;48.720;9.166;2023-04-03T00:06:59;6.67;;;3.63;;
3847;SDS011;1939;48.720;9.166;2023-04-03T00:09:24;8.50;;;4.20;;
3847;SDS011;1939;48.720;9.166;2023-04-03T00:11:50;3.93;;;3.00;;
3847;SDS011;1939;48.720;9.166;2023-04-03T00:14:15;6.90;;;4.43;;
3847;SDS011;1939;48.720;9.166;2023-04-03T00:16:40;4.80;;;3.20;;
3847;SDS011;1939;48.720;9.166;2023-04-03T00:19:05;6.73;;;3.80;;
3847;SDS011;1939;48.720;9.166;2023-04-03T00:21:30;8.13;;;3.23;;
3847;SDS011;1939;48.720;9.166;2023-04-03T00:23:56;6.60;;;3.37;;
3847;SDS011;1939;48.720;9.166;2023-04-03T00:26:21;5.93;;;3.17;;
3847;SDS011;1939;48.720;9.166;2023-04-03T00:28:47;4.50;;;3.37;;
3847;SDS011;1939;48.720;9.166;2023-04-03T00:31:14;3.90;;;3.20;;
3847;SDS011;1939;48.720;9.166;2023-04-03T00:33:39;4.33;;;2.97;;
3847;SDS011;1939;48.720;9.166;2023-04-03T00:36:05;6.43;;;3.43;;
3847;SDS011;1939;48.720;9.166;2023-04-03T00:38:31;4.47;;;3.10;;
3847;SDS011;1939;48.720;9.166;2023-04-03T00:40:56;3.93;;;3.27;;
3847;SDS011;1939;48.720;9.166;2023-04-03T00:43:22;4.20;;;3.20;;
3847;SDS011;1939;48.720;9.166;2023-04-03T00:45:49;5.03;;;3.20;;
3847;SDS011;1939;48.720;9.166;2023-04-03T00:48:21;2.87;;;2.60;;
3847;SDS011;1939;48.720;9.166;2023-04-03T00:50:47;5.20;;;3.90;;
3847;SDS011;1939;48.720;9.166;2023-04-03T00:53:16;5.53;;;3.97;;
3847;SDS011;1939;48.720;9.166;2023-04-03T00:55:43;8.90;;;3.70;;
3847;SDS011;1939;48.720;9.166;2023-04-03T00:58:08;3.63;;;2.80;;
3847;SDS011;1939;48.720;9.166;2023-04-03T01:00:35;8.73;;;3.63;;
3847;SDS011;1939;48.720;9.166;2023-04-03T01:03:02;5.47;;;3.40;;
3847;SDS011;1939;48.720;9.166;2023-04-03T01:05:27;4.77;;;3.23;;
3847;SDS011;1939;48.720;9.166;2023-04-03T01:07:52;4.57;;;3.10;;
3847;SDS011;1939;48.720;9.166;2023-04-03T01:10:18;5.60;;;3.60;;
3847;SDS011;1939;48.720;9.166;2023-04-03T01:12:46;3.30;;;2.93;;
3847;SDS011;1939;48.720;9.166;2023-04-03T01:15:19;4.03;;;2.83;;
3847;SDS011;1939;48.720;9.166;2023-04-03T01:17:48;7.83;;;4.67;;
3847;SDS011;1939;48.720;9.166;2023-04-03T01:20:31;3.90;;;2.83;;
3847;SDS011;1939;48.720;9.166;2023-04-03T01:28:01;5.27;;;3.87;;
3847;SDS011;1939;48.720;9.166;2023-04-03T01:30:28;4.30;;;3.27;;
3847;SDS011;1939;48.720;9.166;2023-04-03T01:32:55;5.53;;;3.83;;
3847;SDS011;1939;48.720;9.166;2023-04-03T01:35:20;4.80;;;3.43;;
3847;SDS011;1939;48.720;9.166;2023-04-03T01:37:45;9.00;;;4.30;;
3847;SDS011;1939;48.720;9.166;2023-04-03T01:40:11;6.13;;;3.87;;
3847;SDS011;1939;48.720;9.166;2023-04-03T01:42:36;5.20;;;3.27;;
3847;SDS011;1939;48.720;9.166;2023-04-03T01:45:01;8.60;;;3.50;;
3847;SDS011;1939;48.720;9.166;2023-04-03T01:47:26;4.20;;;3.63;;
3847;SDS011;1939;48.720;9.166;2023-04-03T01:49:52;5.00;;;3.70;;
3847;SDS011;1939;48.720;9.166;2023-04-03T01:52:17;4.63;;;3.20;;
3847;SDS011;1939;48.720;9.166;2023-04-03T01:54:42;4.13;;;3.30;;
3847;SDS011;1939;48.720;9.166;2023-04-03T01:57:07;8.47;;;3.97;;
3847;SDS011;1939;48.720;9.166;2023-04-03T01:59:33;5.80;;;3.63;;
3847;SDS011;1939;48.720;9.166;2023-04-03T02:01:58;5.97;;;3.47;;
3847;SDS011;1939;48.720;9.166;2023-04-03T02:04:23;8.43;;;3.57;;
3847;SDS011;1939;48.720;9.166;2023-04-03T02:06:48;3.63;;;2.93;;
3847;SDS011;1939;48.720;9.166;2023-04-03T02:09:14;8.03;;;3.20;;
3847;SDS011;1939;48.720;9.166;2023-04-03T02:11:39;4.20;;;3.03;;
3847;SDS011;1939;48.720;9.166;2023-04-03T02:14:04;4.07;;;3.60;;
3847;SDS011;1939;48.720;9.166;2023-04-03T02:16:30;5.53;;;3.80;;
3847;SDS011;1939;48.720;9.166;2023-04-03T02:18:55;5.97;;;4.93;;
3847;SDS011;1939;48.720;9.166;2023-04-03T02:21:21;4.50;;;3.20;;
3847;SDS011;1939;48.720;9.166;2023-04-03T02:23:46;5.47;;;3.50;;
3847;SDS011;1939;48.720;9.166;2023-04-03T02:26:12;3.77;;;3.40;;
3847;SDS011;1939;48.720;9.166;2023-04-03T02:28:38;5.37;;;3.20;;
3847;SDS011;1939;48.720;9.166;2023-04-03T02:31:03;3.40;;;3.00;;
3847;SDS011;1939;48.720;9.166;2023-04-03T02:33:31;5.00;;;2.77;;
3847;SDS011;1939;48.720;9.166;2023-04-03T02:35:56;4.80;;;3.53;;
3847;SDS011;1939;48.720;9.166;2023-04-03T02:38:22;2.90;;;2.60;;
3847;SDS011;1939;48.720;9.166;2023-04-03T02:40:47;4.23;;;3.10;;
3847;SDS011;1939;48.720;9.166;2023-04-03T02:43:13;5.87;;;3.17;;
3847;SDS011;1939;48.720;9.166;2023-04-03T02:45:38;5.50;;;3.30;;
3847;SDS011;1939;48.720;9.166;2023-04-03T02:48:03;4.17;;;3.33;;
3847;SDS011;1939;48.720;9.166;2023-04-03T02:50:29;4.17;;;3.10;;
3847;SDS011;1939;48.720;9.166;2023-04-03T02:52:54;5.17;;;3.30;;
3847;SDS011;1939;48.720;9.166;2023-04-03T02:55:20;5.77;;;3.27;;
3847;SDS011;1939;48.720;9.166;2023-04-03T02:57:45;3.87;;;3.10;;
3847;SDS011;1939;48.720;9.166;2023-04-03T03:00:10;3.40;;;2.83;;
3847;SDS011;1939;48.720;9.166;2023-04-03T03:02:36;7.30;;;3.70;;
3847;SDS011;1939;48.720;9.166;2023-04-03T03:05:01;6.57;;;3.60;;
3847;SDS011;1939;48.720;9.166;2023-04-03T03:07:26;7.47;;;3.20;;
3847;SDS011;1939;48.720;9.166;2023-04-03T03:09:51;5.70;;;4.00;;
3847;SDS011;1939;48.720;9.166;2023-04-03T03:12:17;5.70;;;3.20;;
3847;SDS011;1939;48.720;9.166;2023-04-03T03:14:46;3.37;;;2.70;;
3847;SDS011;1939;48.720;9.166;2023-04-03T03:17:11;5.50;;;3.50;;
3847;SDS011;1939;48.720;9.166;2023-04-03T03:19:37;4.53;;;3.20;;
3847;SDS011;1939;48.720;9.166;2023-04-03T03:22:02;3.60;;;2.80;;
3847;SDS011;1939;48.720;9.166;2023-04-03T03:24:27;4.27;;;2.97;;
3847;SDS011;1939;48.720;9.166;2023-04-03T03:26:52;4.67;;;2.93;;
3847;SDS011;1939;48.720;9.166;2023-04-03T03:29:17;5.40;;;3.13;;
3847;SDS011;1939;48.720;9.166;2023-04-03T03:31:43;3.57;;;2.90;;
3847;SDS011;1939;48.720;9.166;2023-04-03T03:34:08;3.80;;;2.97;;
3847;SDS011;1939;48.720;9.166;2023-04-03T03:36:33;3.50;;;3.20;;
3847;SDS011;1939;48.720;9.166;2023-04-03T03:38:58;5.30;;;3.07;;
3847;SDS011;1939;48.720;9.166;2023-04-03T03:41:24;4.13;;;3.33;;
3847;SDS011;1939;48.720;9.166;2023-04-03T03:43:49;5.23;;;2.87;;
3847;SDS011;1939;48.720;9.166;2023-04-03T03:46:14;4.83;;;3.20;;
3847;SDS011;1939;48.720;9.166;2023-04-03T03:48:40;5.97;;;3.43;;
3847;SDS011;1939;48.720;9.166;2023-04-03T03:51:05;4.30;;;3.00;;
3847;SDS011;1939;48.720;9.166;2023-04-03T03:53:31;6.47;;;3.63;;
3847;SDS011;1939;48.720;9.166;2023-04-03T03:55:56;4.60;;;2.87;;
3847;SDS011;1939;48.720;9.166;2023-04-03T03:58:21;4.43;;;3.10;;
3847;SDS011;1939;48.720;9.166;2023-04-03T04:00:47;4.07;;;2.70;;
3847;SDS011;1939;48.720;9.166;2023-04-03T04:03:12;2.80;;;2.50;;
3847;SDS011;1939;48.720;9.166;2023-04-03T04:05:37;3.70;;;3.20;;
3847;SDS011;1939;48.720;9.166;2023-04-03T04:08:02;3.17;;;2.63;;
3847;SDS011;1939;48.720;9.166;2023-04-03T04:10:28;3.10;;;2.50;;
3847;SDS011;1939;48.720;9.166;2023-04-03T04:12:53;2.73;;;2.53;;
3847;SDS011;1939;48.720;9.166;2023-04-03T04:15:18;4.63;;;2.97;;
3847;SDS011;1939;48.720;9.166;2023-04-03T04:17:43;4.77;;;3.30;;
3847;SDS011;1939;48.720;9.166;2023-04-03T04:20:09;4.60;;;3.13;;
3847;SDS011;1939;48.720;9.166;2023-04-03T04:22:34;3.10;;;2.80;;
3847;SDS011;1939;48.720;9.166;2023-04-03T04:24:59;3.27;;;2.70;;
3847;SDS011;1939;48.720;9.166;2023-04-03T04:27:24;6.40;;;3.13;;
3847;SDS011;1939;48.720;9.166;2023-04-03T04:29:50;4.60;;;3.30;;
3847;SDS011;1939;48.720;9.166;2023-04-03T04:32:15;3.87;;;3.00;;
3847;SDS011;1939;48.720;9.166;2023-04-03T04:34:40;5.17;;;3.30;;
3847;SDS011;1939;48.720;9.166;2023-04-03T04:37:05;4.10;;;3.00;;
3847;SDS011;1939;48.720;9.166;2023-04-03T04:39:31;4.90;;;3.53;;
3847;SDS011;1939;48.720;9.166;2023-04-03T04:41:56;4.10;;;2.60;;
3847;SDS011;1939;48.720;9.166;2023-04-03T04:44:21;3.17;;;2.63;;
3847;SDS011;1939;48.720;9.166;2023-04-03T04:46:46;5.50;;;3.20;;
3847;SDS011;1939;48.720;9.166;2023-04-03T04:49:12;3.73;;;3.00;;
3847;SDS011;1939;48.720;9.166;2023-04-03T04:51:37;3.40;;;2.93;;
3847;SDS011;1939;48.720;9.166;2023-04-03T04:54:02;4.90;;;3.30;;
3847;SDS011;1939;48.720;9.166;2023-04-03T04:56:27;5.43;;;3.40;;
3847;SDS011;1939;48.720;9.166;2023-04-03T04:58:53;3.60;;;3.20;;
3847;SDS011;1939;48.720;9.166;2023-04-03T05:01:18;5.10;;;2.47;;
3847;SDS011;1939;48.720;9.166;2023-04-03T05:03:43;2.80;;;2.40;;
3847;SDS011;1939;48.720;9.166;2023-04-03T05:06:09;2.67;;;2.10;;
3847;SDS011;1939;48.720;9.166;2023-04-03T05:08:34;13.03;;;2.40;;
3847;SDS011;1939;48.720;9.166;2023-04-03T05:10:59;5.77;;;2.80;;
3847;SDS011;1939;48.720;9.166;2023-04-03T05:13:24;3.40;;;2.50;;
3847;SDS011;1939;48.720;9.166;2023-04-03T05:15:50;10.20;;;3.07;;
3847;SDS011;1939;48.720;9.166;2023-04-03T05:18:15;2.77;;;2.27;;
3847;SDS011;1939;48.720;9.166;2023-04-03T05:20:40;3.53;;;2.70;;
3847;SDS011;1939;48.720;9.166;2023-04-03T05:23:05;3.37;;;2.17;;
3847;SDS011;1939;48.720;9.166;2023-04-03T05:25:31;5.40;;;3.67;;
3847;SDS011;1939;48.720;9.166;2023-04-03T05:27:56;3.00;;;2.17;;
3847;SDS011;1939;48.720;9.166;2023-04-03T05:30:21;6.53;;;3.00;;
3847;SDS011;1939;48.720;9.166;2023-04-03T05:32:47;4.40;;;2.47;;
3847;SDS011;1939;48.720;9.166;2023-04-03T05:35:12;5.87;;;2.60;;
3847;SDS011;1939;48.720;9.166;2023-04-03T05:37:38;4.50;;;2.63;;
3847;SDS011;1939;48.720;9.166;2023-04-03T05:40:04;5.83;;;3.20;;
3847;SDS011;1939;48.720;9.166;2023-04-03T05:42:29;4.53;;;2.23;;
3847;SDS011;1939;48.720;9.166;2023-04-03T05:44:54;7.30;;;2.43;;
3847;SDS011;1939;48.720;9.166;2023-04-03T05:47:20;2.83;;;2.00;;
3847;SDS011;1939;48.720;9.166;2023-04-03T05:49:45;5.77;;;2.57;;
3847;SDS011;1939;48.720;9.166;2023-04-03T05:52:18;3.73;;;2.30;;
3847;SDS011;1939;48.720;9.166;2023-04-03T05:54:45;3.00;;;2.30;;
3847;SDS011;1939;48.720;9.166;2023-04-03T05:57:13;2.47;;;2.27;;
3847;SDS011;1939;48.720;9.166;2023-04-03T05:59:38;2.97;;;2.43;;
3847;SDS011;1939;48.720;9.166;2023-04-03T06:02:03;4.53;;;3.20;;
3847;SDS011;1939;48.720;9.166;2023-04-03T06:04:28;8.60;;;2.73;;
3847;SDS011;1939;48.720;9.166;2023-04-03T06:06:54;4.93;;;3.13;;
3847;SDS011;1939;48.720;9.166;2023-04-03T06:09:21;6.70;;;2.97;;
3847;SDS011;1939;48.720;9.166;2023-04-03T06:11:47;5.27;;;2.80;;
3847;SDS011;1939;48.720;9.166;2023-04-03T06:14:12;4.30;;;2.60;;
3847;SDS011;1939;48.720;9.166;2023-04-03T06:16:37;4.40;;;2.87;;
3847;SDS011;1939;48.720;9.166;2023-04-03T06:19:03;8.17;;;3.67;;
3847;SDS011;1939;48.720;9.166;2023-04-03T06:21:29;4.33;;;3.37;;
3847;SDS011;1939;48.720;9.166;2023-04-03T06:23:55;3.53;;;3.07;;
3847;SDS011;1939;48.720;9.166;2023-04-03T06:26:20;5.53;;;2.43;;
3847;SDS011;1939;48.720;9.166;2023-04-03T06:28:46;4.33;;;2.80;;
3847;SDS011;1939;48.720;9.166;2023-04-03T06:31:11;4.20;;;2.70;;
3847;SDS011;1939;48.720;9.166;2023-04-03T06:33:36;4.13;;;2.83;;
3847;SDS011;1939;48.720;9.166;2023-04-03T06:36:03;2.77;;;2.50;;
3847;SDS011;1939;48.720;9.166;2023-04-03T06:38:29;3.63;;;2.40;;
3847;SDS011;1939;48.720;9.166;2023-04-03T06:40:54;3.97;;;2.20;;
3847;SDS011;1939;48.720;9.166;2023-04-03T06:43:19;2.47;;;2.27;;
3847;SDS011;1939;48.720;9.166;2023-04-03T06:45:45;4.90;;;2.17;;
3847;SDS011;1939;48.720;9.166;2023-04-03T06:48:10;4.97;;;3.07;;
3847;SDS011;1939;48.720;9.166;2023-04-03T06:50:36;3.57;;;2.40;;
3847;SDS011;1939;48.720;9.166;2023-04-03T06:53:01;2.97;;;2.77;;
3847;SDS011;1939;48.720;9.166;2023-04-03T06:55:27;2.80;;;2.43;;
3847;SDS011;1939;48.720;9.166;2023-04-03T06:57:52;3.10;;;2.70;;
3847;SDS011;1939;48.720;9.166;2023-04-03T07:00:17;2.87;;;2.57;;
3847;SDS011;1939;48.720;9.166;2023-04-03T07:02:43;4.30;;;2.43;;
3847;SDS011;1939;48.720;9.166;2023-04-03T07:05:08;4.37;;;2.13;;
3847;SDS011;1939;48.720;9.166;2023-04-03T07:07:34;4.77;;;2.60;;
3847;SDS011;1939;48.720;9.166;2023-04-03T07:09:59;8.90;;;2.60;;
3847;SDS011;1939;48.720;9.166;2023-04-03T07:12:25;3.20;;;2.03;;
3847;SDS011;1939;48.720;9.166;2023-04-03T07:14:51;2.90;;;2.20;;
3847;SDS011;1939;48.720;9.166;2023-04-03T07:17:16;4.13;;;2.63;;
3847;SDS011;1939;48.720;9.166;2023-04-03T07:19:41;2.70;;;2.33;;
3847;SDS011;1939;48.720;9.166;2023-04-03T07:22:06;3.47;;;2.40;;
3847;SDS011;1939;48.720;9.166;2023-04-03T07:24:32;3.43;;;2.33;;
3847;SDS011;1939;48.720;9.166;2023-04-03T07:26:58;6.03;;;2.77;;
3847;SDS011;1939;48.720;9.166;2023-04-03T07:29:23;4.30;;;2.40;;
3847;SDS011;1939;48.720;9.166;2023-04-03T07:31:48;4.30;;;2.93;;
3847;SDS011;1939;48.720;9.166;2023-04-03T07:34:14;5.93;;;2.67;;
3847;SDS011;1939;48.720;9.166;2023-04-03T07:36:39;3.90;;;2.73;;
3847;SDS011;1939;48.720;9.166;2023-04-03T07:39:05;5.27;;;2.33;;
3847;SDS011;1939;48.720;9.166;2023-04-03T07:41:32;3.00;;;2.07;;
3847;SDS011;1939;48.720;9.166;2023-04-03T07:43:57;3.20;;;2.23;;
3847;SDS011;1939;48.720;9.166;2023-04-03T07:46:23;2.90;;;2.20;;
3847;SDS011;1939;48.720;9.166;2023-04-03T07:48:48;4.17;;;2.47;;
3847;SDS011;1939;48.720;9.166;2023-04-03T07:51:14;3.33;;;2.40;;
3847;SDS011;1939;48.720;9.166;2023-04-03T07:53:40;2.43;;;2.23;;
3847;SDS011;1939;48.720;9.166;2023-04-03T07:56:05;2.50;;;2.07;;
3847;SDS011;1939;48.720;9.166;2023-04-03T07:58:30;3.50;;;2.80;;
3847;SDS011;1939;48.720;9.166;2023-04-03T08:00:55;7.33;;;2.67;;
3847;SDS011;1939;48.720;9.166;2023-04-03T08:03:21;5.83;;;2.77;;
3847;SDS011;1939;48.720;9.166;2023-04-03T08:05:47;5.50;;;2.50;;
3847;SDS011;1939;48.720;9.166;2023-04-03T08:08:15;3.43;;;2.73;;
3847;SDS011;1939;48.720;9.166;2023-04-03T08:10:40;5.23;;;2.47;;
3847;SDS011;1939;48.720;9.166;2023-04-03T08:13:06;5.53;;;2.63;;
3847;SDS011;1939;48.720;9.166;2023-04-03T08:15:31;3.03;;;2.70;;
3847;SDS011;1939;48.720;9.166;2023-04-03T08:17:57;3.90;;;2.70;;
3847;SDS011;1939;48.720;9.166;2023-04-03T08:20:22;3.47;;;2.50;;
3847;SDS011;1939;48.720;9.166;2023-04-03T08:22:47;5.67;;;2.27;;
3847;SDS011;1939;48.720;9.166;2023-04-03T08:25:13;4.23;;;3.30;;
3847;SDS011;1939;48.720;9.166;2023-04-03T08:27:38;3.77;;;2.70;;
3847;SDS011;1939;48.720;9.166;2023-04-03T08:30:04;6.07;;;2.90;;
3847;SDS011;1939;48.720;9.166;2023-04-03T08:32:29;5.20;;;2.73;;
3847;SDS011;1939;48.720;9.166;2023-04-03T08:34:55;3.60;;;2.63;;
3847;SDS011;1939;48.720;9.166;2023-04-03T08:37:20;3.60;;;2.27;;
3847;SDS011;1939;48.720;9.166;2023-04-03T08:39:46;6.83;;;2.73;;
3847;SDS011;1939;48.720;9.166;2023-04-03T08:45:10;3.20;;;2.40;;
3847;SDS011;1939;48.720;9.166;2023-04-03T08:47:41;5.00;;;2.83;;
3847;SDS011;1939;48.720;9.166;2023-04-03T08:50:12;6.80;;;3.40;;
3847;SDS011;1939;48.720;9.166;2023-04-03T08:52:39;6.57;;;2.80;;
3847;SDS011;1939;48.720;9.166;2023-04-03T08:55:10;4.83;;;2.03;;
3847;SDS011;1939;48.720;9.166;2023-04-03T08:57:41;4.43;;;2.50;;
3847;SDS011;1939;48.720;9.166;2023-04-03T09:02:47;3.90;;;2.30;;
3847;SDS011;1939;48.720;9.166;2023-04-03T09:05:14;2.40;;;2.20;;
3847;SDS011;1939;48.720;9.166;2023-04-03T09:07:42;2.53;;;2.33;;
3847;SDS011;1939;48.720;9.166;2023-04-03T09:10:09;4.20;;;2.40;;
3847;SDS011;1939;48.720;9.166;2023-04-03T09:12:39;9.80;;;2.53;;
3847;SDS011;1939;48.720;9.166;2023-04-03T09:15:10;4.10;;;3.03;;
3847;SDS011;1939;48.720;9.166;2023-04-03T09:17:49;6.40;;;2.90;;
3847;SDS011;1939;48.720;9.166;2023-04-03T09:23:04;3.80;;;2.90;;
3847;SDS011;1939;48.720;9.166;2023-04-03T09:25:35;3.83;;;2.20;;
3847;SDS011;1939;48.720;9.166;2023-04-03T09:28:02;6.00;;;2.70;;
3847;SDS011;1939;48.720;9.166;2023-04-03T09:30:27;7.63;;;3.10;;
3847;SDS011;1939;48.720;9.166;2023-04-03T09:32:54;2.90;;;2.50;;
3847;SDS011;1939;48.720;9.166;2023-04-03T09:35:21;4.10;;;2.67;;
3847;SDS011;1939;48.720;9.166;2023-04-03T09:37:52;4.60;;;2.27;;
3847;SDS011;1939;48.720;9.166;2023-04-03T09:42:59;3.23;;;2.30;;
3847;SDS011;1939;48.720;9.166;2023-04-03T09:45:29;4.03;;;2.40;;
3847;SDS011;1939;48.720;9.166;2023-04-03T09:48:28;3.33;;;2.53;;
3847;SDS011;1939;48.720;9.166;2023-04-03T09:53:24;4.90;;;2.30;;
3847;SDS011;1939;48.720;9.166;2023-04-03T09:55:51;5.60;;;2.70;;
3847;SDS011;1939;48.720;9.166;2023-04-03T09:58:33;6.30;;;2.80;;
3847;SDS011;1939;48.720;9.166;2023-04-03T10:01:02;2.00;;;1.90;;
3847;SDS011;1939;48.720;9.166;2023-04-03T10:03:29;3.47;;;2.93;;
3847;SDS011;1939;48.720;9.166;2023-04-03T10:05:55;4.27;;;2.97;;
3847;SDS011;1939;48.720;9.166;2023-04-03T10:08:24;4.80;;;2.80;;
3847;SDS011;1939;48.720;9.166;2023-04-03T10:11:11;3.27;;;2.10;;
3847;SDS011;1939;48.720;9.166;2023-04-03T10:13:35;3.30;;;2.30;;
3847;SDS011;1939;48.720;9.166;2023-04-03T10:16:06;5.27;;;3.37;;
3847;SDS011;1939;48.720;9.166;2023-04-03T10:18:39;4.33;;;2.50;;
3847;SDS011;1939;48.720;9.166;2023-04-03T10:23:44;3.00;;;2.10;;
3847;SDS011;1939;48.720;9.166;2023-04-03T10:29:15;3.40;;;2.10;;
3847;SDS011;1939;48.720;9.166;2023-04-03T10:34:16;2.03;;;1.80;;
3847;SDS011;1939;48.720;9.166;2023-04-03T10:36:52;3.10;;;2.00;;
3847;SDS011;1939;48.720;9.166;2023-04-03T10:39:34;5.93;;;2.27;;
3847;SDS011;1939;48.720;9.166;2023-04-03T10:44:36;5.70;;;2.70;;
3847;SDS011;1939;48.720;9.166;2023-04-03T10:47:12;5.33;;;2.17;;
3847;SDS011;1939;48.720;9.166;2023-04-03T10:57:47;3.07;;;1.73;;
3847;SDS011;1939;48.720;9.166;2023-04-03T11:00:20;8.30;;;2.10;;
3847;SDS011;1939;48.720;9.166;2023-04-03T11:02:56;5.07;;;2.40;;
3847;SDS011;1939;48.720;9.166;2023-04-03T11:05:31;2.50;;;2.10;;
3847;SDS011;1939;48.720;9.166;2023-04-03T11:08:00;2.63;;;2.20;;
3847;SDS011;1939;48.720;9.166;2023-04-03T11:13:11;5.37;;;2.40;;
3847;SDS011;1939;48.720;9.166;2023-04-03T11:15:37;5.73;;;2.30;;
3847;SDS011;1939;48.720;9.166;2023-04-03T11:18:19;2.20;;;2.00;;
3847;SDS011;1939;48.720;9.166;2023-04-03T11:23:26;2.30;;;2.10;;
3847;SDS011;1939;48.720;9.166;2023-04-03T11:25:54;4.63;;;1.87;;
3847;SDS011;1939;48.720;9.166;2023-04-03T11:28:21;4.43;;;2.33;;
3847;SDS011;1939;48.720;9.166;2023-04-03T11:33:24;3.13;;;2.83;;
3847;SDS011;1939;48.720;9.166;2023-04-03T11:35:57;3.00;;;2.00;;
3847;SDS011;1939;48.720;9.166;2023-04-03T11:38:24;3.13;;;1.80;;
3847;SDS011;1939;48.720;9.166;2023-04-03T11:40:51;3.77;;;1.90;;
3847;SDS011;1939;48.720;9.166;2023-04-03T11:43:25;2.90;;;1.67;;
3847;SDS011;1939;48.720;9.166;2023-04-03T11:46:04;2.40;;;1.63;;
3847;SDS011;1939;48.720;9.166;2023-04-03T11:50:58;3.37;;;1.67;;
3847;SDS011;1939;48.720;9.166;2023-04-03T11:53:36;5.23;;;2.20;;
3847;SDS011;1939;48.720;9.166;2023-04-03T11:56:02;4.00;;;1.57;;
3847;SDS011;1939;48.720;9.166;2023-04-03T12:01:06;5.67;;;1.90;;
3847;SDS011;1939;48.720;9.166;2023-04-03T12:16:06;5.00;;;3.20;;
3847;SDS011;1939;48.720;9.166;2023-04-03T12:24:00;5.73;;;2.63;;
3847;SDS011;1939;48.720;9.166;2023-04-03T12:26:30;2.70;;;2.20;;
3847;SDS011;1939;48.720;9.166;2023-04-03T12:28:56;2.30;;;2.10;;
3847;SDS011;1939;48.720;9.166;2023-04-03T12:31:22;4.97;;;2.30;;
3847;SDS011;1939;48.720;9.166;2023-04-03T12:36:40;2.47;;;2.10;;
3847;SDS011;1939;48.720;9.166;2023-04-03T12:39:31;4.70;;;2.20;;
3847;SDS011;1939;48.720;9.166;2023-04-03T12:42:09;5.80;;;2.30;;
3847;SDS011;1939;48.720;9.166;2023-04-03T12:47:04;2.60;;;1.97;;
3847;SDS011;1939;48.720;9.166;2023-04-03T12:49:39;2.80;;;1.67;;
3847;SDS011;1939;48.720;9.166;2023-04-03T12:52:13;2.80;;;1.50;;
3847;SDS011;1939;48.720;9.166;2023-04-03T12:54:41;4.50;;;2.03;;
3847;SDS011;1939;48.720;9.166;2023-04-03T12:57:20;2.27;;;2.00;;
3847;SDS011;1939;48.720;9.166;2023-04-03T12:59:46;2.90;;;2.10;;
3847;SDS011;1939;48.720;9.166;2023-04-03T13:02:31;6.83;;;2.60;;
3847;SDS011;1939;48.720;9.166;2023-04-03T13:04:59;2.00;;;1.90;;
3847;SDS011;1939;48.720;9.166;2023-04-03T13:07:32;3.92;;;1.90;;
3847;SDS011;1939;48.720;9.166;2023-04-03T13:12:28;2.00;;;1.87;;
3847;SDS011;1939;48.720;9.166;2023-04-03T13:14:54;2.80;;;1.60;;
3847;SDS011;1939;48.720;9.166;2023-04-03T13:17:19;3.73;;;2.70;;
3847;SDS011;1939;48.720;9.166;2023-04-03T13:19:46;5.50;;;2.43;;
3847;SDS011;1939;48.720;9.166;2023-04-03T13:22:25;4.63;;;2.10;;
3847;SDS011;1939;48.720;9.166;2023-04-03T13:24:51;2.00;;;1.80;;
3847;SDS011;1939;48.720;9.166;2023-04-03T13:27:18;5.30;;;2.43;;
3847;SDS011;1939;48.720;9.166;2023-04-03T13:29:43;2.93;;;1.83;;
3847;SDS011;1939;48.720;9.166;2023-04-03T13:32:16;3.70;;;2.00;;
3847;SDS011;1939;48.720;9.166;2023-04-03T13:34:43;2.60;;;2.00;;
3847;SDS011;1939;48.720;9.166;2023-04-03T13:37:19;1.80;;;1.70;;
3847;SDS011;1939;48.720;9.166;2023-04-03T13:39:45;2.37;;;2.17;;
3847;SDS011;1939;48.720;9.166;2023-04-03T13:42:22;6.60;;;1.93;;
3847;SDS011;1939;48.720;9.166;2023-04-03T13:44:47;2.70;;;2.07;;
3847;SDS011;1939;48.720;9.166;2023-04-03T13:47:18;3.20;;;2.20;;
3847;SDS011;1939;48.720;9.166;2023-04-03T13:49:45;3.40;;;1.93;;
3847;SDS011;1939;48.720;9.166;2023-04-03T13:54:45;2.83;;;2.17;;
3847;SDS011;1939;48.720;9.166;2023-04-03T13:57:15;3.13;;;1.93;;
3847;SDS011;1939;48.720;9.166;2023-04-03T13:59:41;3.13;;;2.23;;
3847;SDS011;1939;48.720;9.166;2023-04-03T14:02:10;3.67;;;2.10;;
3847;SDS011;1939;48.720;9.166;2023-04-03T14:07:09;3.53;;;1.73;;
3847;SDS011;1939;48.720;9.166;2023-04-03T14:09:34;2.83;;;2.27;;
3847;SDS011;1939;48.720;9.166;2023-04-03T14:12:02;2.30;;;2.10;;
3847;SDS011;1939;48.720;9.166;2023-04-03T14:14:31;4.77;;;1.70;;
3847;SDS011;1939;48.720;9.166;2023-04-03T14:16:57;4.20;;;1.70;;
3847;SDS011;1939;48.720;9.166;2023-04-03T14:21:50;2.90;;;2.07;;
3847;SDS011;1939;48.720;9.166;2023-04-03T14:24:16;2.87;;;1.50;;
3847;SDS011;1939;48.720;9.166;2023-04-03T14:26:41;3.40;;;2.40;;
3847;SDS011;1939;48.720;9.166;2023-04-03T14:29:09;3.33;;;2.07;;
3847;SDS011;1939;48.720;9.166;2023-04-03T14:31:35;6.87;;;2.60;;
3847;SDS011;1939;48.720;9.166;2023-04-03T14:34:00;3.27;;;2.07;;
3847;SDS011;1939;48.720;9.166;2023-04-03T14:36:27;6.10;;;2.00;;
3847;SDS011;1939;48.720;9.166;2023-04-03T14:38:53;5.63;;;2.00;;
3847;SDS011;1939;48.720;9.166;2023-04-03T14:41:19;2.23;;;1.90;;
3847;SDS011;1939;48.720;9.166;2023-04-03T14:43:45;3.23;;;1.70;;
3847;SDS011;1939;48.720;9.166;2023-04-03T14:46:33;7.63;;;2.50;;
3847;SDS011;1939;48.720;9.166;2023-04-03T14:48:57;2.60;;;2.40;;
3847;SDS011;1939;48.720;9.166;2023-04-03T14:51:22;4.03;;;2.33;;
3847;SDS011;1939;48.720;9.166;2023-04-03T14:53:47;3.00;;;2.17;;
3847;SDS011;1939;48.720;9.166;2023-04-03T14:56:16;2.93;;;2.07;;
3847;SDS011;1939;48.720;9.166;2023-04-03T14:58:42;2.10;;;1.80;;
3847;SDS011;1939;48.720;9.166;2023-04-03T15:01:08;4.07;;;2.03;;
3847;SDS011;1939;48.720;9.166;2023-04-03T15:03:35;5.37;;;2.60;;
3847;SDS011;1939;48.720;9.166;2023-04-03T15:06:00;2.57;;;2.00;;
3847;SDS011;1939;48.720;9.166;2023-04-03T15:08:26;2.53;;;1.83;;
3847;SDS011;1939;48.720;9.166;2023-04-03T15:10:52;3.90;;;2.33;;
3847;SDS011;1939;48.720;9.166;2023-04-03T15:13:17;3.07;;;2.20;;
3847;SDS011;1939;48.720;9.166;2023-04-03T15:15:43;3.20;;;2.10;;
3847;SDS011;1939;48.720;9.166;2023-04-03T15:18:10;3.80;;;2.27;;
3847;SDS011;1939;48.720;9.166;2023-04-03T15:20:36;7.00;;;2.20;;
3847;SDS011;1939;48.720;9.166;2023-04-03T15:23:02;2.87;;;2.27;;
3847;SDS011;1939;48.720;9.166;2023-04-03T15:25:27;2.23;;;1.73;;
3847;SDS011;1939;48.720;9.166;2023-04-03T15:27:53;3.60;;;1.80;;
3847;SDS011;1939;48.720;9.166;2023-04-03T15:30:19;3.13;;;1.80;;
3847;SDS011;1939;48.720;9.166;2023-04-03T15:32:45;12.83;;;2.07;;
3847;SDS011;1939;48.720;9.166;2023-04-03T15:35:10;2.70;;;1.70;;
3847;SDS011;1939;48.720;9.166;2023-04-03T15:37:36;2.60;;;2.23;;
3847;SDS011;1939;48.720;9.166;2023-04-03T15:40:02;3.77;;;1.80;;
3847;SDS011;1939;48.720;9.166;2023-04-03T15:42:27;1.90;;;1.63;;
3847;SDS011;1939;48.720;9.166;2023-04-03T15:44:52;3.90;;;2.20;;
3847;SDS011;1939;48.720;9.166;2023-04-03T15:47:18;5.17;;;4.70;;
3847;SDS011;1939;48.720;9.166;2023-04-03T15:49:43;2.20;;;1.70;;
3847;SDS011;1939;48.720;9.166;2023-04-03T15:52:08;4.90;;;2.20;;
3847;SDS011;1939;48.720;9.166;2023-04-03T15:54:34;2.30;;;1.97;;
3847;SDS011;1939;48.720;9.166;2023-04-03T15:56:59;2.80;;;1.60;;
3847;SDS011;1939;48.720;9.166;2023-04-03T15:59:24;7.83;;;2.20;;
3847;SDS011;1939;48.720;9.166;2023-04-03T16:01:50;4.50;;;1.77;;
3847;SDS011;1939;48.720;9.166;2023-04-03T16:04:16;2.80;;;1.60;;
3847;SDS011;1939;48.720;9.166;2023-04-03T16:06:42;5.93;;;2.23;;
3847;SDS011;1939;48.720;9.166;2023-04-03T16:09:07;2.60;;;1.83;;
3847;SDS011;1939;48.720;9.166;2023-04-03T16:11:33;7.10;;;2.33;;
3847;SDS011;1939;48.720;9.166;2023-04-03T16:14:00;3.23;;;2.20;;
3847;SDS011;1939;48.720;9.166;2023-04-03T16:16:25;3.13;;;1.83;;
3847;SDS011;1939;48.720;9.166;2023-04-03T16:18:52;1.83;;;1.63;;
3847;SDS011;1939;48.720;9.166;2023-04-03T16:21:18;2.10;;;1.97;;
3847;SDS011;1939;48.720;9.166;2023-04-03T16:23:44;3.40;;;2.50;;
3847;SDS011;1939;48.720;9.166;2023-04-03T16:26:09;2.30;;;1.63;;
3847;SDS011;1939;48.720;9.166;2023-04-03T16:28:35;2.95;;;2.10;;
3847;SDS011;1939;48.720;9.166;2023-04-03T16:31:00;1.83;;;1.67;;
3847;SDS011;1939;48.720;9.166;2023-04-03T16:33:26;2.60;;;2.20;;
3847;SDS011;1939;48.720;9.166;2023-04-03T16:35:51;2.70;;;1.60;;
3847;SDS011;1939;48.720;9.166;2023-04-03T16:38:17;3.10;;;2.10;;